KHWD/HWD METAR and TAF weather

Enter ICAO airport designator
Station Type Date Time Source
KHWD METAR 2022/06/26 07:54 UTC NOAA

KHWD 260754Z AUTO 33005KT 10SM CLR 13/11 A2997 RMK AO2 SLP156 T01330111 402390128


Station Type Date Time Source
KHWD Decoded METAR 2022/06/26 07:54 UTC NOAA

HAYWARD AIR TERMINAL, CA, United States (KHWD) 37-40N 122-07W 21M
Jun 26, 2022 - 03:54 AM EDT / 2022.06.26 0754 UTC
Wind: from the NNW (330 degrees) at 6 MPH (5 KT):0
Visibility: 10 mile(s):0
Sky conditions: clear
Temperature: 55.9 F (13.3 C)
Dew Point: 52.0 F (11.1 C)
Relative Humidity: 86%
Pressure (altimeter): 29.97 in. Hg (1014 hPa)
ob: KHWD 260754Z AUTO 33005KT 10SM CLR 13/11 A2997 RMK AO2 SLP156 T01330111 402390128
cycle: 8

Station Type Date Time Source
KHWD TAF UTC NOAA

Error!

Example: see airport list